createdAt,value
2022-08-21T00:03:04.367Z,5.13
2022-08-21T00:08:08.341Z,5.80
2022-08-21T00:13:11.596Z,5.55
2022-08-21T00:18:14.427Z,5.32
2022-08-21T00:23:17.807Z,5.28
2022-08-21T00:28:20.450Z,5.57
2022-08-21T00:33:22.872Z,5.32
2022-08-21T00:38:25.158Z,4.57
2022-08-21T00:43:31.096Z,4.80
2022-08-21T00:48:34.230Z,4.95
2022-08-21T00:53:40.153Z,4.90
2022-08-21T00:58:45.116Z,4.85
2022-08-21T01:03:50.428Z,5.10
2022-08-21T01:08:52.441Z,4.72
2022-08-21T01:13:55.645Z,5.03
2022-08-21T01:18:57.689Z,4.43
2022-08-21T01:24:00.104Z,4.72
2022-08-21T01:29:12.978Z,4.65
2022-08-21T01:34:16.980Z,4.75
2022-08-21T01:39:19.183Z,5.10
2022-08-21T01:44:25.320Z,5.20
2022-08-21T01:49:27.982Z,4.60
2022-08-21T01:54:30.568Z,4.20
2022-08-21T01:59:33.799Z,4.45
2022-08-21T02:04:36.356Z,4.07
2022-08-21T02:09:40.175Z,3.20
2022-08-21T02:14:42.156Z,3.75
2022-08-21T02:19:44.677Z,3.65
2022-08-21T02:24:54.605Z,3.70
2022-08-21T02:29:58.798Z,3.80
2022-08-21T02:35:01.124Z,3.88
2022-08-21T02:40:04.110Z,3.47
2022-08-21T02:45:06.839Z,2.08
2022-08-21T02:50:09.565Z,3.58
2022-08-21T02:55:12.823Z,2.33
2022-08-21T03:00:17.099Z,1.80
2022-08-21T03:05:20.077Z,1.98
2022-08-21T03:10:23.113Z,1.40
2022-08-21T03:15:26.424Z,1.20
2022-08-21T03:20:33.598Z,2.25
2022-08-21T03:25:40.603Z,2.65
2022-08-21T03:30:45.860Z,3.08
2022-08-21T03:35:57.820Z,2.90
2022-08-21T03:41:01.942Z,2.72
2022-08-21T03:46:05.659Z,2.75
2022-08-21T03:51:08.292Z,3.45
2022-08-21T03:56:10.750Z,2.92
2022-08-21T04:01:13.673Z,3.88
2022-08-21T04:06:15.787Z,5.00
2022-08-21T04:11:18.861Z,5.57
2022-08-21T04:16:22.763Z,5.47
2022-08-21T04:21:25.710Z,5.00
2022-08-21T04:26:29.718Z,5.07
2022-08-21T04:31:32.410Z,5.38
2022-08-21T04:36:35.304Z,5.32
2022-08-21T04:41:37.774Z,4.95
2022-08-21T04:46:40.278Z,4.68
2022-08-21T04:51:42.902Z,4.85
2022-08-21T04:57:18.093Z,4.97
2022-08-21T05:02:24.334Z,4.60
2022-08-21T05:07:42.113Z,5.13
2022-08-21T05:12:46.358Z,4.20
2022-08-21T05:18:00.775Z,4.35
2022-08-21T05:23:09.511Z,4.70
2022-08-21T05:33:14.427Z,5.22
2022-08-21T05:38:18.083Z,5.40
2022-08-21T05:43:21.535Z,5.82
2022-08-21T05:48:27.778Z,5.05
2022-08-21T05:53:30.339Z,5.80
2022-08-21T05:58:34.706Z,6.05
2022-08-21T06:03:40.632Z,5.63
2022-08-21T06:08:42.487Z,5.78
2022-08-21T06:13:44.065Z,6.55
2022-08-21T06:18:46.664Z,6.45
2022-08-21T06:23:49.447Z,6.70
2022-08-21T06:28:52.769Z,7.10
2022-08-21T06:33:56.424Z,7.20
2022-08-21T06:38:58.131Z,8.25
2022-08-21T06:43:59.981Z,7.95
2022-08-21T06:49:03.135Z,7.78
2022-08-21T06:54:10.758Z,8.15
2022-08-21T06:59:14.782Z,8.38
2022-08-21T07:04:16.660Z,9.95
2022-08-21T07:09:23.970Z,10.00
2022-08-21T07:14:26.920Z,8.40
2022-08-21T07:19:29.290Z,9.52
2022-08-21T07:24:31.876Z,9.85
2022-08-21T07:29:33.889Z,9.98
2022-08-21T07:34:35.606Z,10.60
2022-08-21T07:39:37.641Z,11.00
2022-08-21T07:44:39.206Z,10.20
2022-08-21T07:49:40.966Z,11.40
2022-08-21T07:54:42.910Z,11.90
2022-08-21T07:59:46.882Z,13.20
2022-08-21T08:04:51.065Z,14.15
2022-08-21T08:09:54.701Z,14.65
2022-08-21T08:15:00.704Z,13.10
2022-08-21T08:20:03.863Z,16.05
2022-08-21T08:25:09.590Z,14.93
2022-08-21T08:30:14.066Z,15.50
2022-08-21T08:35:17.075Z,15.93
2022-08-21T08:40:57.919Z,13.48
2022-08-21T08:46:05.873Z,14.65
2022-08-21T08:51:14.782Z,11.90
2022-08-21T08:56:23.512Z,13.90
2022-08-21T09:01:26.524Z,12.38
2022-08-21T09:07:03.075Z,11.45
2022-08-21T09:12:08.388Z,10.23
2022-08-21T09:17:35.200Z,8.57
2022-08-21T09:23:12.305Z,9.00
2022-08-21T09:28:17.258Z,9.07
2022-08-21T09:33:22.437Z,8.60
2022-08-21T09:38:35.336Z,8.55
2022-08-21T09:43:39.447Z,7.75
2022-08-21T09:48:48.771Z,9.68
2022-08-21T09:54:04.629Z,9.27
2022-08-21T09:59:21.101Z,10.35
2022-08-21T10:04:31.424Z,10.35
2022-08-21T10:09:33.839Z,8.32
2022-08-21T10:14:35.850Z,8.60
2022-08-21T10:20:10.545Z,9.55
2022-08-21T10:25:24.555Z,7.97
2022-08-21T10:30:41.406Z,9.23
2022-08-21T10:35:51.726Z,9.98
2022-08-21T10:41:19.697Z,10.20
2022-08-21T10:46:31.093Z,9.35
2022-08-21T10:51:41.047Z,8.80
2022-08-21T10:56:44.422Z,9.63
2022-08-21T11:01:54.176Z,10.05
2022-08-21T11:07:17.188Z,9.85
2022-08-21T11:12:30.289Z,8.57
2022-08-21T11:17:44.686Z,7.95
2022-08-21T11:22:53.859Z,7.60
2022-08-21T11:28:03.686Z,7.60
2022-08-21T11:33:29.842Z,8.20
2022-08-21T11:38:45.227Z,6.63
2022-08-21T11:43:54.822Z,8.98
2022-08-21T11:49:31.332Z,6.57
2022-08-21T11:54:44.490Z,7.18
2022-08-21T12:00:04.690Z,6.60
2022-08-21T12:05:44.488Z,6.47
2022-08-21T12:11:10.777Z,7.60
2022-08-21T12:16:28.835Z,6.60
2022-08-21T12:26:48.665Z,5.28
2022-08-21T12:31:59.301Z,5.78
2022-08-21T12:37:17.601Z,6.05
2022-08-21T12:42:26.390Z,5.22
2022-08-21T12:47:35.601Z,4.90
2022-08-21T12:52:46.368Z,5.03
2022-08-21T12:57:50.377Z,4.70
2022-08-21T13:02:55.347Z,4.43
2022-08-21T13:07:58.031Z,3.90
2022-08-21T13:13:12.291Z,3.72
2022-08-21T13:18:28.622Z,6.20
2022-08-21T13:23:33.170Z,4.30
2022-08-21T13:28:38.640Z,4.30
2022-08-21T13:33:41.806Z,4.70
2022-08-21T13:38:45.934Z,3.83
2022-08-21T13:43:58.801Z,3.85
2022-08-21T13:49:03.056Z,3.40
2022-08-21T13:54:25.515Z,3.40
2022-08-21T13:59:36.190Z,3.58
2022-08-21T14:04:45.472Z,3.95
2022-08-21T14:09:56.214Z,3.67
2022-08-21T14:15:01.076Z,3.95
2022-08-21T14:20:06.494Z,3.08
2022-08-21T14:25:15.666Z,3.80
2022-08-21T14:30:34.282Z,3.22
2022-08-21T14:35:39.898Z,3.00
2022-08-21T14:40:43.583Z,2.97
2022-08-21T14:45:45.449Z,2.70
2022-08-21T14:50:48.027Z,3.05
2022-08-21T14:56:05.806Z,2.53
2022-08-21T15:01:09.471Z,2.40
2022-08-21T15:06:11.718Z,2.25
2022-08-21T15:11:42.324Z,2.83
2022-08-21T15:21:44.906Z,2.33
2022-08-21T15:26:50.286Z,2.60
2022-08-21T15:31:58.682Z,2.20
2022-08-21T15:37:03.933Z,2.30
2022-08-21T15:42:11.023Z,2.33
2022-08-21T15:47:22.089Z,2.22
2022-08-21T15:57:26.981Z,2.28
2022-08-21T16:02:32.018Z,2.03
2022-08-21T16:07:33.896Z,2.22
2022-08-21T16:12:39.544Z,2.30
2022-08-21T16:17:44.745Z,2.10
2022-08-21T16:22:47.310Z,2.03
2022-08-21T16:27:59.536Z,1.92
2022-08-21T16:33:05.723Z,2.03
2022-08-21T16:38:08.787Z,2.00
2022-08-21T16:43:10.773Z,1.80
2022-08-21T16:48:16.350Z,1.80
2022-08-21T16:53:18.293Z,1.77
2022-08-21T16:58:36.652Z,1.92
2022-08-21T17:03:43.453Z,1.92
2022-08-21T17:08:45.827Z,1.58
2022-08-21T17:13:48.006Z,1.50
2022-08-21T17:18:52.500Z,1.48
2022-08-21T17:23:57.671Z,1.70
2022-08-21T17:28:59.799Z,1.50
2022-08-21T17:34:01.493Z,1.50
2022-08-21T17:39:05.926Z,1.50
2022-08-21T17:44:10.695Z,2.03
2022-08-21T17:49:15.997Z,1.50
2022-08-21T17:54:18.488Z,1.88
2022-08-21T17:59:22.166Z,1.70
2022-08-21T18:04:25.250Z,2.00
2022-08-21T18:09:28.350Z,1.70
2022-08-21T18:14:33.140Z,1.80
2022-08-21T18:19:34.762Z,2.15
2022-08-21T18:24:50.448Z,1.70
2022-08-21T18:29:58.363Z,1.65
2022-08-21T18:35:06.438Z,1.80
2022-08-21T18:45:16.405Z,1.80
2022-08-21T18:50:21.082Z,1.90
2022-08-21T18:55:27.538Z,1.83
2022-08-21T19:00:35.791Z,1.98
2022-08-21T19:05:40.120Z,2.00
2022-08-21T19:10:45.786Z,2.00
2022-08-21T19:15:56.010Z,1.80
2022-08-21T19:20:57.703Z,1.80
2022-08-21T19:26:03.787Z,2.25
2022-08-21T19:31:19.702Z,1.80
2022-08-21T19:36:25.953Z,2.00
2022-08-21T19:41:36.090Z,2.55
2022-08-21T19:46:42.145Z,2.33
2022-08-21T19:51:44.846Z,2.20
2022-08-21T19:56:47.628Z,2.10
2022-08-21T20:01:51.773Z,2.03
2022-08-21T20:06:54.110Z,2.25
2022-08-21T20:11:59.244Z,2.08
2022-08-21T20:17:11.270Z,1.85
2022-08-21T20:22:15.946Z,2.35
2022-08-21T20:27:24.393Z,2.10
2022-08-21T20:32:26.374Z,2.25
2022-08-21T20:37:36.755Z,2.20
2022-08-21T20:42:48.922Z,2.75
2022-08-21T20:47:54.350Z,2.00
2022-08-21T20:53:04.830Z,2.35
2022-08-21T20:58:12.622Z,2.20
2022-08-21T21:03:30.533Z,2.72
2022-08-21T21:08:48.937Z,2.35
2022-08-21T21:14:02.261Z,2.42
2022-08-21T21:19:22.824Z,2.88
2022-08-21T21:24:36.676Z,2.63
2022-08-21T21:29:54.461Z,2.88
2022-08-21T21:34:59.835Z,2.92
2022-08-21T21:40:25.126Z,2.90
2022-08-21T21:45:38.035Z,3.15
2022-08-21T21:51:01.084Z,3.17
2022-08-21T21:56:17.676Z,3.25
2022-08-21T22:01:39.435Z,3.00
2022-08-21T22:07:05.263Z,3.20
2022-08-21T22:12:50.095Z,3.10
2022-08-21T22:18:11.104Z,4.40
2022-08-21T22:23:18.105Z,3.20
2022-08-21T22:28:25.813Z,4.53
2022-08-21T22:33:29.392Z,2.90
2022-08-21T22:38:36.981Z,4.07
2022-08-21T22:44:31.150Z,3.60
2022-08-21T22:49:38.682Z,3.25
2022-08-21T22:54:46.300Z,3.80
2022-08-21T23:00:14.015Z,2.90
2022-08-21T23:05:20.026Z,3.25
2022-08-21T23:10:29.401Z,2.90
2022-08-21T23:15:39.956Z,3.38
2022-08-21T23:21:01.554Z,3.05
2022-08-21T23:26:28.374Z,3.10
2022-08-21T23:31:52.063Z,3.42
2022-08-21T23:37:41.186Z,2.72
2022-08-21T23:43:20.842Z,2.72
2022-08-21T23:48:29.557Z,3.20
2022-08-21T23:53:55.025Z,2.90
2022-08-21T23:59:27.188Z,3.15
